메인 페이지
METAR-TAF:

METAR-TAF

공항 :

카이로 국제공항

카이로, 이집트

위도: 30-08N, 경도: 031-24E, 고도: 64m

현재 날씨관측

예보는 22분 전, 23:30시(UTC)에 발표되었습니다.
남남동8kt
온도 16°C
습도 39%
기압 1015 hPa
시정 10km 이상
고도 2500ft 상공 구름 보통

METAR: HECA 012330Z 16008KT 9999 SCT025 16/02 Q1015 NOSIG

시각: 01:52 (23:52 UTC)

예보

예보는 52분 전, 23:00시(UTC)에 발표되었습니다.
예보 대상 시간: 02일 00시부터 03일 06시까지 (UTC)
10kt
시정 10km 이상
고도 2500ft 상공 구름 보통
일시적
02일 00시부터 02일 09시까지 (UTC)
여러 방향의 바람 3kt
시정: 4000m
연무
확률 40%
02일 00시부터 02일 06시까지 (UTC)
시정: 2000m

TAF: HECA 012300Z 0200/0306 18010KT 9999 SCT025 TEMPO 0200/0209 VRB03KT 4000 HZ NSC PROB40 0200/0206 2000

4,000개 이상의 공항 관측 자료 및 예보 (METAR 및 TAF 보고).

지도상에서 검색 가능한 기상관측소가 노란 점과 빨간 점으로 표시되어 있습니다.

기상관측소 명을 보려면 표시 위로 마우스를 이동하세요.

날씨 관측과 예보를 보려면 클릭하세요.

지도 변경 : 확대하려면 엑스 표시가 있는 녹색 버튼, 축소하려면 빼기 표시가 있는 녹색 버튼, 다음 페이지의 지도를 보려면 녹색 화살표를 클릭하세요.


METAR-TAF: